AirNav   TITAN Aviation Fuels
 
 1746 users online  

3MO3 Research Medical Center Heliport
Kansas City, Missouri, USA

GOING TO KANSAS CITY?


FAA INFORMATION EFFECTIVE 17 JUNE 2021

Location

FAA Identifier: 3MO3
Lat/Long: 39-00-29.5100N 094-33-24.2900W
39-00.491833N 094-33.404833W
39.0081972,-94.5567472
(estimated)
Elevation: 947 ft. / 288.6 m (surveyed)
Variation: 05E (1985)
Time zone: UTC -5 (UTC -6 during Standard Time)
Zip code: 64132

Heliport Operations

Heliport use: Private use, MEDICAL.
Activation date: 02/1976
Control tower: no
ARTCC: KANSAS CITY CENTER
FSS: COLUMBIA FLIGHT SERVICE STATION
Attendance: CONTINUOUS
FOR SVC CALL 276-4177
Wind indicator: yes
Segmented circle: no
Lights: FOR PERIMETER LGTS CALL 816-276-4177.

Heliport Communications

WX ASOS at MKC (7 nm N): PHONE 816-329-2843
WX ASOS at LXT (9 nm E): 124.175 (816-347-9807)
WX ASOS at OJC (13 nm SW): PHONE 913-780-6969
WX ASOS at MCI (19 nm NW): PHONE 816-329-2808
WX ASOS at IXD (19 nm SW): 135.325 (913-780-6987)

Nearby radio navigation aids

VOR radial/distance  VOR name  Freq  Var
MCIr148/18.6KANSAS CITY VORTAC113.2505E
ANXr248/20.6NAPOLEON VORTAC114.0007E

Heliport Services

Runway Information

Helipad H2

Dimensions: 70 x 100 ft. / 21 x 30 m
Surface: asphalt
Runway edge lights: PERI
Traffic pattern: leftleft

Helipad H1

Dimensions: 60 x 55 ft. / 18 x 17 m
Surface: concrete
Latitude: 39-00.491833N
Longitude: 094-33.404833W
Elevation: 947.0 ft.
Traffic pattern: leftleft
Obstructions: 90 ft. bldg, 70 ft. from runway
BLDG 70' WEST OF HELIPAD.

Heliport Ownership and Management from official FAA records

Ownership: Privately-owned
Owner: RESEARCH MEDICAL CENTER
2316 EAST MEYER BLVD
KANSAS CITY, MO 64132
Phone 816-276-4000
Manager: DIRECTOR OF PLANT OPNS
2316 EAST MEYER BLVD
KANSAS CITY, MO 64132
Phone 816-276-4177
MICHAEL SWITZER

Heliport Operational Statistics

Aircraft based on the field: 1
Helicopters: 1
    

Additional Remarks

A52-H2 35' PLINES 110' E; 50' TREES 225' S; 20' PKG STRUCTURE 90' N.
9500 LB GWT LMT PER ARPT MGR.
FOR CD CTC KANSAS CITY APCH AT 816-329-2710.

Instrument Procedures

There are no published instrument procedures at 3MO3.

Some nearby airports with instrument procedures:

KMKC - Charles B Wheeler Downtown Airport (7 nm N)
KLXT - Lee's Summit Municipal Airport (9 nm E)
KOJC - Johnson County Executive Airport (13 nm SW)
3GV - East Kansas City Airport (16 nm E)
KMCI - Kansas City International Airport (19 nm NW)
KIXD - New Century AirCenter Airport (19 nm SW)
 
Loc | Ops | Rwys | IFR | FBO | Links
Com | Nav | Svcs | Stats | Notes
Area around 3MO3 (Research Medical Center Heliport)
 
Road maps at: MapQuest Bing Google
 
Aerial photo
No photo
 
Sectional chart

 
Airport distance calculator
Flying to Research Medical Center Heliport? Find the distance to fly.

From to 3MO3

Sunrise and sunset
Times for 24-Jun-2021
 Local
(UTC-5)
 Zulu
(UTC)
Morning civil twilight05:2210:22
Sunrise05:5410:54
Sunset20:4701:47
Evening civil twilight21:1902:19

Current date and time
Zulu (UTC)  24-Jun-2021 18:13:03
Local (UTC-5)  24-Jun-2021 13:13:03
 
METAR
KMKC 
7nm N 
241754Z 14012G23KT 10SM BKN020 BKN025 OVC030 27/22 A2987 RMK AO2 LTG DSNT N AND NE SLP104 60009 T02670222 10278 20228 55010
KLXT 
9nm E 
241753Z AUTO 15011KT 10SM BKN011 25/23 A2988 RMK AO2 LTG DSNT N SLP109 60035 T02500228 10256 20233 56021
KOJC 
13nm SW 
241753Z 15010KT 10SM FEW022 27/23 A2986 RMK AO2 PRESFR SLP098 60027 T02670228 10267 20233 55010
KIXD 
19nm SW 
241753Z 15010G22KT 10SM FEW017 28/23 A2988 RMK AO2 SLP104 60038 T02780228 10278 20239 58012
KMCI 
19nm NW 
241753Z 14010KT 8SM FEW021 FEW027 SCT032 OVC130 27/23 A2987 RMK AO2 LTG DSNT NE AND E SLP103 60019 T02720233 10272 20228 56013
TAF
KMKC 
7nm N 
241738Z 2418/2518 14012G21KT P6SM SCT016 BKN021 FM241900 18013G21KT P6SM SCT030 BKN060 FM250000 18011KT P6SM VCTS SCT030 BKN060CB TEMPO 2501/2504 2SM TSRA BR OVC025CB FM250500 16013KT P6SM VCTS BKN040CB FM251000 20008KT P6SM BKN070
KIXD 
19nm SW 
241738Z 2418/2518 14008G17KT P6SM BKN015 FM241900 18013G21KT P6SM SCT030 BKN060 FM250000 18011KT P6SM VCTS SCT030 BKN060CB TEMPO 2501/2504 2SM TSRA BR OVC025CB FM250500 16013KT P6SM VCTS BKN040CB FM251000 20008KT P6SM BKN070
KMCI 
19nm NW 
241738Z 2418/2518 14013KT P6SM FEW011 SCT018 OVC130 FM241900 18013G21KT P6SM SCT030 BKN060 FM250000 18011KT P6SM VCTS SCT030 BKN060CB TEMPO 2501/2504 2SM TSRA BR OVC025CB FM250500 16013KT P6SM VCTS BKN040CB FM251000 20008KT P6SM BKN070
NOTAMs
Click for the latest NOTAMs
NOTAMs are issued by the DoD/FAA and will open in a separate window not controlled by AirNav.

 

 
 

Would you like to see your business listed on this page?

 If your business provides an interesting product or service to pilots, flight crews, aircraft, or users of the Research Medical Center Heliport, you should consider listing it here.  To start the listing process, click on the button below
 
Add a business
 

Other Pages about Research Medical Center Heliport

Update a link
 
Copyright © AirNav, LLC. All rights reserved. Privacy Policy  Contact